Time;durP1;ratioP1;P1;durP2;ratioP2;P2;SDS_P1;SDS_P2;PMS_P1;PMS_P2;Temp;Humidity;BMP_temperature;BMP_pressure;BME280_temperature;BME280_humidity;BME280_pressure;Samples;Min_cycle;Max_cycle;Signal;HPM_P1;HPM_P2
2021/08/22 00:00:10;;;;;;;9.97;8.80;;;19.60;99.90;;;;;;5078159;28;20375;-82
2021/08/22 00:02:36;;;;;;;9.73;8.70;;;19.60;99.90;;;;;;5061820;28;20164;-84
2021/08/22 00:05:02;;;;;;;9.60;8.77;;;19.60;99.90;;;;;;5061369;28;20413;-83
2021/08/22 00:07:28;;;;;;;13.53;8.77;;;19.60;99.90;;;;;;5060711;28;20539;-83
2021/08/22 00:09:54;;;;;;;9.57;8.53;;;19.50;99.90;;;;;;5059882;28;20440;-84
2021/08/22 00:12:22;;;;;;;9.07;8.17;;;19.50;99.90;;;;;;5059134;28;20391;-84
2021/08/22 00:14:48;;;;;;;9.10;8.20;;;19.40;99.90;;;;;;5060290;28;20391;-83
2021/08/22 00:17:14;;;;;;;10.77;8.83;;;19.50;99.90;;;;;;5060437;28;20268;-84
2021/08/22 00:19:39;;;;;;;9.80;7.30;;;19.40;99.90;;;;;;5059091;28;20171;-83
2021/08/22 00:22:05;;;;;;;10.83;7.90;;;19.20;99.90;;;;;;5060669;28;20247;-83
2021/08/22 00:24:30;;;;;;;9.03;8.23;;;19.00;99.90;;;;;;5060504;28;20160;-84
2021/08/22 00:26:56;;;;;;;12.40;7.97;;;19.00;99.90;;;;;;5060580;28;20163;-83
2021/08/22 00:29:21;;;;;;;10.10;8.47;;;19.10;99.90;;;;;;5060208;28;20160;-83
2021/08/22 00:31:47;;;;;;;7.40;6.73;;;19.10;99.90;;;;;;5060194;28;20168;-84
2021/08/22 00:34:12;;;;;;;7.90;7.13;;;19.10;99.90;;;;;;5066974;28;20216;-81
2021/08/22 00:36:38;;;;;;;9.40;8.40;;;19.10;99.90;;;;;;5076143;28;20196;-81
2021/08/22 00:39:04;;;;;;;16.90;7.10;;;19.00;99.90;;;;;;5050349;28;20216;-83
2021/08/22 00:41:31;;;;;;;12.37;8.10;;;19.00;99.90;;;;;;5040282;28;20175;-84
2021/08/22 00:43:56;;;;;;;8.00;7.30;;;19.00;99.90;;;;;;5040187;28;20395;-84
2021/08/22 00:46:22;;;;;;;8.17;7.40;;;18.90;99.90;;;;;;5022074;28;20482;-82
2021/08/22 00:48:47;;;;;;;8.57;7.77;;;19.00;99.90;;;;;;5039747;28;20161;-83
2021/08/22 00:51:16;;;;;;;12.47;7.60;;;19.10;99.90;;;;;;5039269;28;20455;-82
2021/08/22 00:53:44;;;;;;;9.60;8.73;;;19.10;99.90;;;;;;5039586;28;20739;-82
2021/08/22 00:56:11;;;;;;;7.93;7.20;;;19.20;99.90;;;;;;5039968;28;20435;-83
2021/08/22 00:58:37;;;;;;;10.57;7.60;;;19.30;99.90;;;;;;5039642;28;20439;-83
2021/08/22 01:01:06;;;;;;;8.70;8.00;;;19.40;99.90;;;;;;5040592;28;20384;-83
2021/08/22 01:03:42;;;;;;;8.20;7.40;;;19.40;99.90;;;;;;5040476;28;20398;-83
2021/08/22 01:06:31;;;;;;;9.77;8.40;;;19.60;99.90;;;;;;5040443;28;20410;-82
2021/08/22 01:09:02;;;;;;;9.90;8.30;;;19.50;99.90;;;;;;5040466;28;20437;-83
2021/08/22 01:11:32;;;;;;;8.43;7.73;;;19.50;99.90;;;;;;5043075;28;20399;-83
2021/08/22 01:14:02;;;;;;;8.47;7.67;;;19.50;99.90;;;;;;5042751;28;20487;-83
2021/08/22 01:16:36;;;;;;;8.80;8.00;;;19.40;99.90;;;;;;5039023;28;20391;-84
2021/08/22 01:19:08;;;;;;;9.10;7.67;;;19.50;99.90;;;;;;5039070;28;20491;-84
2021/08/22 01:21:33;;;;;;;7.90;7.20;;;19.60;99.90;;;;;;5038913;28;20390;-83
2021/08/22 01:24:03;;;;;;;11.27;7.00;;;19.60;99.90;;;;;;5038556;28;20735;-83
2021/08/22 01:26:33;;;;;;;12.10;9.07;;;19.50;99.90;;;;;;5038910;28;20582;-84
2021/08/22 01:28:59;;;;;;;8.50;7.30;;;19.40;99.90;;;;;;5038720;28;20827;-83
2021/08/22 01:31:27;;;;;;;8.30;7.60;;;19.40;99.90;;;;;;5038863;28;20402;-83
2021/08/22 01:33:55;;;;;;;10.00;8.63;;;19.30;99.90;;;;;;5038620;28;20482;-81
2021/08/22 01:36:22;;;;;;;10.93;9.93;;;19.30;99.90;;;;;;5038593;28;20506;-83
2021/08/22 01:38:49;;;;;;;8.43;7.63;;;19.20;99.90;;;;;;5038384;28;20446;-83
2021/08/22 01:41:16;;;;;;;8.23;7.63;;;19.20;99.90;;;;;;5038613;28;20392;-83
2021/08/22 01:43:43;;;;;;;8.73;7.90;;;19.20;99.90;;;;;;5038548;28;20859;-83
2021/08/22 01:46:09;;;;;;;7.87;7.10;;;19.20;99.90;;;;;;5038938;28;20396;-83
2021/08/22 01:48:36;;;;;;;10.40;9.40;;;19.10;99.90;;;;;;5037976;28;20470;-84
2021/08/22 01:51:03;;;;;;;10.20;8.10;;;19.10;99.90;;;;;;5038599;28;20156;-83
2021/08/22 01:53:30;;;;;;;10.23;8.93;;;19.10;99.90;;;;;;5038579;28;20437;-84
2021/08/22 01:55:56;;;;;;;8.50;7.60;;;19.10;99.90;;;;;;5038484;28;20392;-83
2021/08/22 01:58:24;;;;;;;9.13;8.23;;;19.10;99.90;;;;;;5038829;28;20423;-84
2021/08/22 02:00:49;;;;;;;9.57;8.57;;;19.10;99.90;;;;;;5021553;28;20602;-84
2021/08/22 02:03:31;;;;;;;11.90;8.90;;;19.20;99.90;;;;;;5021030;28;20398;-84
2021/08/22 02:06:06;;;;;;;9.37;7.73;;;19.20;99.90;;;;;;5043091;28;20235;-83
2021/08/22 02:08:35;;;;;;;8.87;8.07;;;19.30;99.90;;;;;;5056433;28;20438;-83
2021/08/22 02:11:09;;;;;;;9.03;8.20;;;19.30;99.90;;;;;;5057519;28;20415;-82
2021/08/22 02:13:39;;;;;;;9.90;8.97;;;19.40;99.90;;;;;;5055453;28;20367;-81
2021/08/22 02:16:06;;;;;;;8.97;7.87;;;19.30;99.90;;;;;;5044597;28;20403;-83
2021/08/22 02:18:36;;;;;;;10.63;9.50;;;19.10;99.90;;;;;;5038255;28;20950;-83
2021/08/22 02:21:02;;;;;;;10.53;9.53;;;19.20;99.90;;;;;;5037779;28;20399;-83
2021/08/22 02:23:28;;;;;;;8.87;7.97;;;19.40;99.90;;;;;;5037552;28;20764;-83
2021/08/22 02:25:55;;;;;;;15.43;9.20;;;19.30;99.90;;;;;;5038208;28;20243;-83
2021/08/22 02:28:20;;;;;;;8.40;7.63;;;19.20;99.90;;;;;;5037546;28;20231;-83
2021/08/22 02:30:46;;;;;;;9.57;7.90;;;18.80;99.90;;;;;;5037719;28;20400;-83
2021/08/22 02:33:11;;;;;;;10.93;8.70;;;18.90;99.90;;;;;;5037740;28;20214;-84
2021/08/22 02:35:37;;;;;;;8.77;7.80;;;18.70;99.90;;;;;;5037353;28;20165;-84
2021/08/22 02:38:03;;;;;;;8.77;7.70;;;18.70;99.90;;;;;;5037054;28;20231;-84
2021/08/22 02:40:28;;;;;;;10.70;9.23;;;18.60;99.90;;;;;;5037496;28;20165;-83
2021/08/22 02:42:54;;;;;;;8.27;7.57;;;18.70;99.90;;;;;;5038085;28;20723;-83
2021/08/22 02:45:20;;;;;;;9.30;8.50;;;18.70;99.90;;;;;;5037439;28;20224;-83
2021/08/22 02:47:45;;;;;;;10.27;8.70;;;18.70;99.90;;;;;;5037811;28;20516;-84
2021/08/22 02:50:11;;;;;;;9.47;8.50;;;18.70;99.90;;;;;;5038115;28;20541;-83
2021/08/22 02:52:47;;;;;;;12.23;8.43;;;18.70;99.90;;;;;;5039664;28;20618;-83
2021/08/22 02:55:13;;;;;;;9.60;8.40;;;18.80;99.90;;;;;;5007940;28;20218;-83
2021/08/22 02:57:38;;;;;;;9.23;8.43;;;18.90;99.90;;;;;;5042145;28;20392;-84
2021/08/22 03:00:04;;;;;;;9.63;8.30;;;18.90;99.90;;;;;;5041723;28;20234;-83
2021/08/22 03:02:30;;;;;;;9.47;8.57;;;18.70;99.90;;;;;;5039824;28;20565;-83
2021/08/22 03:04:55;;;;;;;8.87;8.07;;;18.70;99.90;;;;;;5038120;28;20426;-83
2021/08/22 03:07:21;;;;;;;10.37;9.23;;;18.60;99.90;;;;;;5037661;28;20199;-83
2021/08/22 03:09:46;;;;;;;8.87;7.97;;;18.60;99.90;;;;;;5038467;28;20246;-83
2021/08/22 03:12:12;;;;;;;11.20;9.50;;;18.40;99.90;;;;;;5040437;28;20188;-84
2021/08/22 03:14:37;;;;;;;10.17;9.17;;;18.40;99.90;;;;;;5040084;28;20187;-83
2021/08/22 03:17:03;;;;;;;10.80;8.70;;;18.40;99.90;;;;;;5042898;28;20243;-84
2021/08/22 03:19:28;;;;;;;9.60;7.73;;;18.40;99.90;;;;;;5042445;28;20168;-83
2021/08/22 03:21:54;;;;;;;9.50;8.60;;;18.50;99.90;;;;;;5040726;28;20165;-83
2021/08/22 03:24:19;;;;;;;9.33;7.40;;;18.50;99.90;;;;;;5040975;28;20487;-83
2021/08/22 03:26:45;;;;;;;9.17;7.80;;;18.60;99.90;;;;;;5040688;28;20196;-83
2021/08/22 03:29:11;;;;;;;9.80;7.20;;;18.60;99.90;;;;;;5041281;28;20244;-83
2021/08/22 03:31:36;;;;;;;8.87;7.70;;;18.40;99.90;;;;;;5040738;28;20286;-83
2021/08/22 03:34:02;;;;;;;9.67;6.90;;;18.40;99.90;;;;;;5040673;28;20165;-83
2021/08/22 03:36:27;;;;;;;9.03;6.90;;;18.50;99.90;;;;;;5041358;28;20202;-83
2021/08/22 03:38:53;;;;;;;7.07;6.37;;;18.40;99.90;;;;;;5040153;28;20224;-83
2021/08/22 03:41:18;;;;;;;7.07;6.37;;;18.30;99.90;;;;;;5041057;28;20177;-83
2021/08/22 03:43:44;;;;;;;8.23;7.40;;;18.30;99.90;;;;;;5041003;28;20164;-83
2021/08/22 03:46:09;;;;;;;6.13;5.63;;;18.40;99.90;;;;;;5046998;28;20243;-83
2021/08/22 03:48:35;;;;;;;8.80;6.33;;;18.30;99.90;;;;;;5050860;28;20200;-82
2021/08/22 03:51:00;;;;;;;7.20;6.50;;;18.20;99.90;;;;;;5048740;28;20183;-82
2021/08/22 03:53:26;;;;;;;7.10;6.40;;;18.30;99.90;;;;;;5044016;28;20165;-83
2021/08/22 03:55:51;;;;;;;10.23;7.80;;;18.30;99.90;;;;;;5040588;28;20157;-83
2021/08/22 03:58:17;;;;;;;8.60;7.00;;;18.30;99.90;;;;;;5040609;28;20222;-82
2021/08/22 04:00:42;;;;;;;8.93;7.17;;;18.20;99.90;;;;;;5040174;28;20248;-83
2021/08/22 04:03:08;;;;;;;7.73;7.03;;;18.20;99.90;;;;;;5040189;28;20218;-82
2021/08/22 04:05:34;;;;;;;7.70;6.97;;;18.30;99.90;;;;;;5040099;28;20157;-82
2021/08/22 04:08:00;;;;;;;9.80;8.00;;;18.40;99.90;;;;;;5041311;28;20266;-80
2021/08/22 04:10:27;;;;;;;12.03;7.77;;;18.40;99.90;;;;;;5048227;28;20407;-82
2021/08/22 04:12:54;;;;;;;8.30;7.37;;;18.20;99.90;;;;;;5042731;28;20427;-82
2021/08/22 04:15:20;;;;;;;8.10;7.30;;;18.10;99.90;;;;;;5040669;28;20396;-82
2021/08/22 04:17:45;;;;;;;11.70;8.10;;;18.10;99.90;;;;;;5049235;28;20475;-80
2021/08/22 04:20:11;;;;;;;11.03;9.03;;;17.80;99.90;;;;;;5049203;28;20543;-80
2021/08/22 04:22:37;;;;;;;9.40;8.33;;;17.70;99.90;;;;;;5049210;28;20606;-80
2021/08/22 04:25:07;;;;;;;13.57;8.97;;;17.70;99.90;;;;;;5048264;28;20165;-79
2021/08/22 04:27:34;;;;;;;10.77;9.67;;;17.70;99.90;;;;;;5048067;28;20838;-79
2021/08/22 04:29:59;;;;;;;10.33;9.43;;;17.80;99.90;;;;;;5043960;28;20410;-82
2021/08/22 04:32:25;;;;;;;10.00;9.00;;;17.80;99.90;;;;;;5039907;28;20388;-82
2021/08/22 04:34:50;;;;;;;8.97;8.07;;;17.80;99.90;;;;;;5039933;28;20165;-82
2021/08/22 04:37:16;;;;;;;12.40;8.33;;;17.80;99.90;;;;;;5043364;28;20160;-80
2021/08/22 04:39:42;;;;;;;13.93;8.90;;;17.90;99.90;;;;;;5048804;28;20191;-84
2021/08/22 04:42:07;;;;;;;8.67;7.77;;;18.00;99.90;;;;;;5046266;28;20207;-80
2021/08/22 04:44:33;;;;;;;8.07;7.27;;;18.00;99.90;;;;;;5022385;28;20621;-83
2021/08/22 04:46:58;;;;;;;7.53;6.70;;;17.90;99.90;;;;;;5039669;28;20516;-83
2021/08/22 04:49:24;;;;;;;7.50;6.80;;;17.80;99.90;;;;;;5039642;28;20164;-83
2021/08/22 04:51:49;;;;;;;15.27;8.57;;;17.80;99.90;;;;;;5039394;28;20160;-83
2021/08/22 04:54:15;;;;;;;7.87;7.13;;;17.90;99.90;;;;;;5038892;28;20248;-83
2021/08/22 04:56:41;;;;;;;12.43;7.47;;;17.90;99.90;;;;;;5039834;28;20157;-83
2021/08/22 04:59:07;;;;;;;9.00;8.03;;;18.00;99.90;;;;;;5039568;28;20156;-84
2021/08/22 05:01:33;;;;;;;8.93;8.03;;;17.90;99.90;;;;;;5021497;28;20739;-83
2021/08/22 05:03:58;;;;;;;11.87;8.13;;;17.90;99.90;;;;;;5039261;28;20483;-83
2021/08/22 05:06:24;;;;;;;10.23;9.27;;;18.00;99.90;;;;;;5038800;28;20183;-83
2021/08/22 05:08:49;;;;;;;9.47;7.70;;;18.00;99.90;;;;;;5038619;28;20188;-84
2021/08/22 05:11:15;;;;;;;13.07;9.30;;;17.90;99.90;;;;;;5039015;28;20160;-83
2021/08/22 05:13:40;;;;;;;9.90;8.90;;;18.00;99.90;;;;;;5038920;28;20594;-83
2021/08/22 05:16:06;;;;;;;7.27;6.60;;;18.20;99.90;;;;;;5038947;28;20275;-83
2021/08/22 05:18:31;;;;;;;8.20;6.90;;;18.00;99.90;;;;;;5038812;28;20638;-83
2021/08/22 05:20:57;;;;;;;7.50;6.80;;;18.00;99.90;;;;;;5038653;28;20272;-83
2021/08/22 05:23:22;;;;;;;7.57;6.83;;;18.00;99.90;;;;;;5038207;28;20165;-82
2021/08/22 05:25:48;;;;;;;7.03;6.43;;;18.30;99.90;;;;;;5042442;28;20167;-82
2021/08/22 05:28:13;;;;;;;8.27;7.47;;;18.40;99.90;;;;;;5047276;28;20192;-81
2021/08/22 05:30:39;;;;;;;7.40;6.40;;;18.30;99.90;;;;;;5047120;28;20157;-82
2021/08/22 05:33:04;;;;;;;7.90;7.17;;;18.30;99.90;;;;;;5041272;28;20569;-82
2021/08/22 05:35:30;;;;;;;7.87;6.90;;;18.30;99.90;;;;;;5039017;28;20175;-82
2021/08/22 05:37:56;;;;;;;7.67;6.10;;;18.30;99.90;;;;;;5038230;28;20247;-82
2021/08/22 05:40:22;;;;;;;8.40;6.57;;;18.40;99.90;;;;;;5037979;28;20424;-82
2021/08/22 05:42:47;;;;;;;6.20;5.70;;;18.40;99.90;;;;;;5038322;28;20192;-82
2021/08/22 05:45:13;;;;;;;11.17;6.70;;;18.20;99.90;;;;;;5038610;28;20183;-82
2021/08/22 05:47:38;;;;;;;10.43;6.00;;;18.30;99.90;;;;;;5038624;28;20199;-82
2021/08/22 05:50:05;;;;;;;9.50;6.60;;;18.50;99.90;;;;;;5038026;28;20156;-82
2021/08/22 05:52:33;;;;;;;8.57;6.63;;;18.60;99.90;;;;;;5038392;28;20191;-83
2021/08/22 05:54:59;;;;;;;6.17;5.57;;;18.70;99.90;;;;;;5038886;28;20887;-83
2021/08/22 05:57:24;;;;;;;6.10;5.50;;;18.70;99.90;;;;;;5039685;28;20395;-83
2021/08/22 05:59:50;;;;;;;6.37;5.77;;;18.70;99.90;;;;;;5039757;28;20156;-83
2021/08/22 06:02:15;;;;;;;6.80;6.20;;;18.50;99.90;;;;;;5039153;28;20505;-84
2021/08/22 06:04:41;;;;;;;7.07;6.37;;;18.50;99.90;;;;;;5039190;28;20171;-84
2021/08/22 06:07:06;;;;;;;7.53;6.50;;;18.60;99.90;;;;;;5040290;28;20196;-84
2021/08/22 06:09:32;;;;;;;7.07;6.20;;;18.40;99.90;;;;;;5048381;28;20200;-84
2021/08/22 06:11:59;;;;;;;9.73;6.93;;;18.40;99.90;;;;;;5039235;28;20161;-83
2021/08/22 06:14:25;;;;;;;8.60;6.60;;;18.40;99.90;;;;;;5039300;28;20679;-83
2021/08/22 06:16:50;;;;;;;6.93;6.33;;;18.30;99.90;;;;;;5037881;28;20502;-83
2021/08/22 06:19:16;;;;;;;7.03;6.43;;;18.50;99.90;;;;;;5038863;28;20315;-83
2021/08/22 06:21:41;;;;;;;6.47;5.87;;;18.60;99.90;;;;;;5038878;28;20175;-83
2021/08/22 06:24:07;;;;;;;8.60;6.90;;;18.30;99.90;;;;;;5039413;28;20172;-83
2021/08/22 06:26:33;;;;;;;5.93;5.37;;;18.40;99.90;;;;;;5039221;28;20629;-83
2021/08/22 06:28:58;;;;;;;6.57;5.90;;;18.50;99.90;;;;;;5039482;28;20574;-83
2021/08/22 06:31:23;;;;;;;7.00;6.30;;;18.70;99.90;;;;;;5039608;28;20161;-83
2021/08/22 06:33:49;;;;;;;8.67;6.13;;;18.70;99.90;;;;;;5040865;28;20153;-84
2021/08/22 06:36:14;;;;;;;7.70;6.80;;;18.80;99.90;;;;;;5041207;28;20183;-83
2021/08/22 06:38:40;;;;;;;8.27;7.50;;;18.90;99.90;;;;;;5055117;28;20212;-80
2021/08/22 06:41:05;;;;;;;7.20;6.50;;;18.90;99.90;;;;;;5057286;28;20169;-80
2021/08/22 06:43:31;;;;;;;7.00;5.80;;;18.60;99.90;;;;;;5039938;28;20157;-81
2021/08/22 06:45:57;;;;;;;7.70;6.30;;;18.80;99.90;;;;;;5056825;28;20161;-82
2021/08/22 06:48:23;;;;;;;8.17;5.80;;;18.90;99.90;;;;;;5038835;28;20677;-83
2021/08/22 06:50:48;;;;;;;6.50;5.90;;;18.80;99.90;;;;;;5039714;28;20520;-83
2021/08/22 06:53:15;;;;;;;6.47;5.87;;;18.90;99.90;;;;;;5041500;28;20168;-84
2021/08/22 06:55:41;;;;;;;6.50;5.70;;;18.80;99.90;;;;;;5041128;28;20548;-83
2021/08/22 06:58:07;;;;;;;9.43;6.63;;;19.00;99.90;;;;;;5041146;28;20403;-83
2021/08/22 07:00:32;;;;;;;6.83;6.13;;;19.30;99.90;;;;;;5041110;28;20410;-83
2021/08/22 07:02:58;;;;;;;9.67;5.70;;;19.30;99.90;;;;;;5041480;28;20207;-83
2021/08/22 07:05:23;;;;;;;6.23;5.63;;;19.40;99.90;;;;;;5041422;28;20157;-83
2021/08/22 07:07:49;;;;;;;8.60;5.80;;;19.40;99.90;;;;;;5041440;28;20189;-83
2021/08/22 07:10:14;;;;;;;7.63;5.70;;;19.40;99.90;;;;;;5042170;28;20470;-82
2021/08/22 07:12:40;;;;;;;7.60;5.60;;;19.30;99.90;;;;;;5041367;28;20224;-84
2021/08/22 07:15:06;;;;;;;7.40;6.17;;;19.50;99.90;;;;;;5040367;28;20164;-84
2021/08/22 07:17:31;;;;;;;6.73;6.13;;;19.50;99.90;;;;;;5040815;28;20590;-83
2021/08/22 07:19:57;;;;;;;6.50;5.80;;;19.50;99.90;;;;;;5040880;28;20176;-83
2021/08/22 07:22:22;;;;;;;7.67;5.60;;;19.60;99.90;;;;;;5041688;28;20164;-83
2021/08/22 07:24:48;;;;;;;6.03;5.37;;;19.50;99.90;;;;;;5041084;28;20169;-83
2021/08/22 07:27:14;;;;;;;6.10;5.20;;;19.50;99.90;;;;;;5040891;28;20195;-83
2021/08/22 07:29:39;;;;;;;6.07;5.47;;;19.40;99.90;;;;;;5041180;28;20180;-83
2021/08/22 07:32:05;;;;;;;8.50;5.27;;;19.50;99.90;;;;;;5041803;28;20165;-82
2021/08/22 07:34:31;;;;;;;8.10;5.43;;;19.60;99.90;;;;;;5041534;28;20167;-81
2021/08/22 07:36:56;;;;;;;6.37;5.20;;;19.80;99.90;;;;;;5024163;28;20443;-83
2021/08/22 07:42:11;;;;;;;9.33;5.70;;;19.60;99.90;;;;;;4980593;28;20205;-84
2021/08/22 07:44:36;;;;;;;6.13;4.20;;;19.90;99.90;;;;;;4980726;28;20465;-84
2021/08/22 07:47:02;;;;;;;6.40;5.80;;;19.80;99.90;;;;;;4981393;28;20214;-84
2021/08/22 07:49:30;;;;;;;6.70;5.67;;;19.80;99.90;;;;;;4980396;28;20271;-82
2021/08/22 07:51:55;;;;;;;6.40;5.70;;;19.70;99.90;;;;;;4980630;28;20202;-83
2021/08/22 07:54:21;;;;;;;7.57;5.70;;;19.60;99.90;;;;;;4979649;28;20493;-82
2021/08/22 07:56:46;;;;;;;11.83;8.13;;;19.60;99.90;;;;;;4979747;28;20221;-83
2021/08/22 07:59:12;;;;;;;5.80;5.20;;;19.60;99.90;;;;;;4980197;28;20230;-83
2021/08/22 08:01:38;;;;;;;6.33;4.90;;;19.80;99.90;;;;;;4986442;28;20183;-82
2021/08/22 08:04:03;;;;;;;9.97;4.40;;;19.80;99.90;;;;;;4989566;28;20170;-83
2021/08/22 08:06:29;;;;;;;7.13;4.90;;;19.70;99.90;;;;;;4980411;28;20170;-83
2021/08/22 08:08:54;;;;;;;8.90;4.47;;;19.70;99.90;;;;;;4979927;28;20222;-82
2021/08/22 08:11:20;;;;;;;6.50;5.00;;;19.80;99.90;;;;;;4979764;28;20160;-84
2021/08/22 08:13:45;;;;;;;6.33;5.37;;;19.80;99.90;;;;;;5036124;28;20194;-84
2021/08/22 08:16:11;;;;;;;5.50;5.00;;;19.70;99.90;;;;;;5041334;28;20219;-84
2021/08/22 08:18:36;;;;;;;6.83;5.03;;;19.60;99.90;;;;;;5040695;28;20165;-83
2021/08/22 08:21:03;;;;;;;7.50;5.40;;;19.60;99.90;;;;;;5040451;28;20164;-84
2021/08/22 08:23:29;;;;;;;7.60;5.50;;;19.70;99.90;;;;;;5040043;28;20164;-84
2021/08/22 08:25:54;;;;;;;5.30;4.80;;;19.80;99.90;;;;;;5040744;28;20479;-84
2021/08/22 08:28:20;;;;;;;5.60;4.77;;;20.00;99.90;;;;;;5041014;28;20219;-83
2021/08/22 08:30:47;;;;;;;5.53;5.00;;;20.00;99.90;;;;;;5041373;28;20169;-84
2021/08/22 08:33:16;;;;;;;6.63;5.40;;;20.20;99.90;;;;;;5023147;28;20164;-83
2021/08/22 08:35:41;;;;;;;6.00;5.00;;;20.00;99.90;;;;;;5040808;28;20403;-83
2021/08/22 08:38:07;;;;;;;6.70;4.53;;;20.30;99.90;;;;;;5041030;28;20458;-83
2021/08/22 08:40:33;;;;;;;7.70;5.90;;;20.40;99.90;;;;;;5040837;28;20165;-83
2021/08/22 08:43:01;;;;;;;5.63;4.20;;;20.50;99.90;;;;;;5040165;28;20168;-84
2021/08/22 08:45:55;;;;;;;6.10;5.00;;;20.60;99.90;;;;;;5040371;28;20445;-84
2021/08/22 08:48:26;;;;;;;7.60;5.40;;;20.60;99.90;;;;;;5022153;28;20446;-84
2021/08/22 08:51:13;;;;;;;6.60;4.87;;;20.80;99.90;;;;;;5040797;28;20396;-84
2021/08/22 08:53:45;;;;;;;7.00;4.40;;;21.00;99.90;;;;;;5040971;28;20404;-84
2021/08/22 08:56:12;;;;;;;5.80;5.00;;;21.00;99.90;;;;;;5027727;28;20396;-84
2021/08/22 08:58:37;;;;;;;6.20;4.77;;;21.10;99.90;;;;;;5043617;28;20429;-84
2021/08/22 09:01:03;;;;;;;5.13;4.57;;;21.20;99.90;;;;;;5040450;28;20400;-84
2021/08/22 09:03:28;;;;;;;7.40;6.70;;;21.30;99.90;;;;;;5051039;28;20176;-83
2021/08/22 09:06:18;;;;;;;4.90;4.40;;;21.20;99.90;;;;;;5055628;28;20196;-82
2021/08/22 09:09:20;;;;;;;4.80;4.40;;;21.20;99.90;;;;;;5056074;28;20204;-83
2021/08/22 09:12:15;;;;;;;4.50;4.10;;;21.30;99.90;;;;;;5056772;28;20470;-82
2021/08/22 09:15:10;;;;;;;5.70;4.30;;;21.30;99.90;;;;;;5041441;28;20395;-84
2021/08/22 09:18:16;;;;;;;5.07;4.67;;;21.20;99.90;;;;;;5023818;28;20395;-83
2021/08/22 09:21:14;;;;;;;6.20;4.80;;;21.20;99.90;;;;;;5041066;28;20447;-83
2021/08/22 09:24:14;;;;;;;5.70;5.17;;;21.10;99.90;;;;;;5032588;28;20422;-83
2021/08/22 09:27:15;;;;;;;4.17;3.80;;;21.30;99.90;;;;;;5039548;28;20399;-83
2021/08/22 09:30:05;;;;;;;7.00;4.97;;;21.30;99.90;;;;;;5028635;28;20391;-84
2021/08/22 09:32:56;;;;;;;6.03;4.90;;;21.30;99.90;;;;;;5040473;28;20391;-83
2021/08/22 09:35:55;;;;;;;5.53;5.03;;;21.50;99.90;;;;;;5040179;28;20387;-84
2021/08/22 09:38:48;;;;;;;6.80;5.90;;;21.50;99.90;;;;;;5039848;28;20455;-84
2021/08/22 09:41:46;;;;;;;6.23;4.70;;;21.80;99.90;;;;;;5039598;28;20481;-84
2021/08/22 09:44:42;;;;;;;6.70;5.67;;;21.80;99.90;;;;;;5040063;28;20407;-84
2021/08/22 09:47:43;;;;;;;6.30;4.47;;;21.80;99.90;;;;;;5039825;28;20469;-84
2021/08/22 09:50:42;;;;;;;5.10;4.60;;;21.90;99.90;;;;;;5039662;28;20395;-82
2021/08/22 09:53:42;;;;;;;10.23;4.97;;;21.70;99.90;;;;;;5038523;28;20403;-84
2021/08/22 09:56:42;;;;;;;9.23;6.07;;;21.20;99.90;;;;;;5039495;28;20876;-84
2021/08/22 09:59:43;;;;;;;6.77;5.00;;;21.10;99.90;;;;;;5038681;28;20395;-84
2021/08/22 10:02:33;;;;;;;6.13;5.27;;;21.10;99.90;;;;;;5023185;28;20512;-82
2021/08/22 10:05:22;;;;;;;6.43;4.97;;;21.20;99.90;;;;;;5038385;28;20400;-83
2021/08/22 10:07:52;;;;;;;8.13;4.90;;;21.30;99.90;;;;;;5038838;28;20462;-83
2021/08/22 10:10:24;;;;;;;7.53;5.33;;;21.30;99.90;;;;;;5039435;28;20402;-83
2021/08/22 10:12:49;;;;;;;6.50;5.47;;;21.50;99.90;;;;;;5039334;28;20478;-83
2021/08/22 10:15:18;;;;;;;5.53;4.80;;;21.50;99.90;;;;;;5039111;28;20442;-82
2021/08/22 10:17:46;;;;;;;8.83;5.63;;;21.60;99.90;;;;;;5021060;28;20191;-84
2021/08/22 10:20:13;;;;;;;6.30;5.13;;;21.70;99.90;;;;;;5038816;28;20414;-84
2021/08/22 10:22:38;;;;;;;10.23;9.23;;;22.10;99.90;;;;;;5037973;28;20438;-83
2021/08/22 10:25:08;;;;;;;5.53;5.00;;;22.20;99.90;;;;;;5023910;28;20475;-84
2021/08/22 10:27:47;;;;;;;6.27;5.67;;;22.60;99.90;;;;;;5027183;28;20192;-84
2021/08/22 10:30:15;;;;;;;6.00;4.80;;;22.20;99.90;;;;;;5043621;28;20406;-83
2021/08/22 10:33:09;;;;;;;8.20;5.97;;;22.30;99.90;;;;;;5042384;28;20399;-84
2021/08/22 10:35:35;;;;;;;5.17;4.57;;;22.20;99.90;;;;;;5030539;28;20395;-83
2021/08/22 10:38:21;;;;;;;5.30;4.70;;;22.60;99.90;;;;;;5048656;28;20498;-84
2021/08/22 10:40:47;;;;;;;6.90;4.93;;;22.90;99.90;;;;;;5041938;28;20165;-84
2021/08/22 10:43:31;;;;;;;4.30;3.90;;;23.40;99.90;;;;;;5043424;28;20399;-83
2021/08/22 10:45:57;;;;;;;14.30;5.00;;;23.60;99.90;;;;;;5042345;28;20387;-84
2021/08/22 10:48:45;;;;;;;6.30;5.20;;;22.90;99.90;;;;;;5042192;28;20453;-84
2021/08/22 10:51:10;;;;;;;6.63;6.07;;;23.50;99.90;;;;;;5027431;28;20168;-84
2021/08/22 10:53:37;;;;;;;5.40;4.60;;;23.00;99.90;;;;;;5042533;28;20885;-84
2021/08/22 10:56:37;;;;;;;5.67;4.90;;;23.00;99.90;;;;;;5042734;28;20169;-84
2021/08/22 10:59:06;;;;;;;4.80;4.40;;;23.10;99.90;;;;;;5027018;28;20459;-83
2021/08/22 11:01:33;;;;;;;4.27;3.97;;;23.10;99.90;;;;;;5043445;28;20407;-84
2021/08/22 11:04:01;;;;;;;4.60;4.20;;;23.00;99.90;;;;;;5043844;28;20391;-84
2021/08/22 11:06:26;;;;;;;4.53;4.13;;;22.90;99.90;;;;;;5043949;28;20398;-84
2021/08/22 11:08:52;;;;;;;7.40;4.47;;;22.40;99.90;;;;;;5046047;28;20526;-81
2021/08/22 11:11:17;;;;;;;5.03;4.50;;;22.30;99.90;;;;;;5046013;28;20196;-84
2021/08/22 11:13:54;;;;;;;4.93;4.40;;;22.40;99.90;;;;;;5042158;28;20161;-83
2021/08/22 11:16:20;;;;;;;4.70;4.40;;;22.10;99.90;;;;;;5041982;28;20172;-84
2021/08/22 11:18:46;;;;;;;5.43;5.00;;;21.90;99.90;;;;;;5041663;28;20480;-84
2021/08/22 11:21:12;;;;;;;4.67;4.27;;;22.10;99.90;;;;;;5041076;28;20165;-84
2021/08/22 11:23:38;;;;;;;5.03;4.17;;;22.20;99.90;;;;;;5048208;28;20398;-81
2021/08/22 11:26:06;;;;;;;5.40;4.90;;;22.30;99.90;;;;;;5058639;28;20438;-83
2021/08/22 11:28:32;;;;;;;4.77;4.37;;;22.20;99.90;;;;;;5057817;28;20451;-81
2021/08/22 11:30:57;;;;;;;5.43;4.93;;;22.40;99.90;;;;;;5058132;28;20396;-81
2021/08/22 11:33:28;;;;;;;5.53;4.70;;;22.60;99.90;;;;;;5050434;28;20429;-84
2021/08/22 11:35:53;;;;;;;5.47;4.57;;;22.60;99.90;;;;;;5041917;28;20165;-84
2021/08/22 11:38:19;;;;;;;5.20;4.70;;;22.40;99.90;;;;;;5041030;28;20978;-84
2021/08/22 11:40:45;;;;;;;5.80;4.50;;;22.20;99.90;;;;;;5041008;28;20161;-83
2021/08/22 11:43:12;;;;;;;6.23;5.00;;;22.10;99.90;;;;;;5040372;28;20161;-83
2021/08/22 11:45:59;;;;;;;5.53;5.00;;;22.30;99.90;;;;;;5047818;28;20402;-83
2021/08/22 11:48:25;;;;;;;5.77;5.13;;;22.60;99.90;;;;;;5047762;28;20451;-82
2021/08/22 11:50:51;;;;;;;6.93;4.97;;;22.70;99.90;;;;;;5040378;28;20833;-84
2021/08/22 11:53:26;;;;;;;8.30;5.10;;;22.80;99.90;;;;;;5040321;28;20160;-84
2021/08/22 11:55:53;;;;;;;5.00;4.50;;;22.80;99.90;;;;;;5040934;28;20395;-84
2021/08/22 11:58:31;;;;;;;4.97;4.57;;;22.70;99.90;;;;;;5040267;28;20794;-84
2021/08/22 12:01:11;;;;;;;6.57;4.70;;;22.70;99.90;;;;;;5008631;28;20468;-84
2021/08/22 12:03:37;;;;;;;4.73;3.73;;;22.50;99.90;;;;;;5022605;28;20407;-84
2021/08/22 12:06:07;;;;;;;5.33;4.77;;;22.40;99.90;;;;;;5040266;28;20396;-83
2021/08/22 12:08:35;;;;;;;5.20;4.70;;;22.40;99.90;;;;;;5040258;28;20564;-85
2021/08/22 12:11:10;;;;;;;5.83;4.70;;;22.40;99.90;;;;;;5039471;28;20888;-84
2021/08/22 12:13:37;;;;;;;4.57;4.10;;;22.50;99.90;;;;;;5039958;28;20914;-84
2021/08/22 12:16:32;;;;;;;8.00;4.13;;;22.50;99.90;;;;;;5039363;28;20392;-84
2021/08/22 12:19:17;;;;;;;5.30;4.50;;;22.40;99.90;;;;;;4941166;29;20415;-82
2021/08/22 12:21:42;;;;;;;4.40;4.00;;;22.30;99.90;;;;;;4940619;29;20929;-84
2021/08/22 12:24:19;;;;;;;4.77;4.20;;;22.20;99.90;;;;;;4940282;29;20423;-83
2021/08/22 12:26:51;;;;;;;4.33;4.03;;;22.00;99.90;;;;;;4940723;29;20171;-81
2021/08/22 12:29:17;;;;;;;3.30;2.93;;;21.70;99.90;;;;;;4940480;29;20475;-83
2021/08/22 12:31:47;;;;;;;3.50;2.90;;;21.50;99.90;;;;;;4939843;29;20396;-84
2021/08/22 12:34:17;;;;;;;3.07;2.80;;;21.40;99.90;;;;;;4908484;29;20184;-83
2021/08/22 12:36:45;;;;;;;6.13;2.63;;;21.30;99.90;;;;;;4940063;29;20499;-84
2021/08/22 12:39:12;;;;;;;3.40;2.87;;;21.40;99.90;;;;;;4955478;29;20459;-83
2021/08/22 12:42:10;;;;;;;4.43;3.10;;;21.30;99.90;;;;;;4959424;29;20436;-83
2021/08/22 12:44:38;;;;;;;3.77;2.83;;;21.30;99.90;;;;;;4959200;29;20419;-84
2021/08/22 12:47:05;;;;;;;4.80;3.03;;;21.30;99.90;;;;;;4943261;29;20555;-83
2021/08/22 12:49:34;;;;;;;4.20;3.40;;;21.30;99.90;;;;;;4985371;28;20486;-83
2021/08/22 12:52:26;;;;;;;3.07;2.87;;;21.20;99.90;;;;;;5022940;28;20392;-83
2021/08/22 12:54:52;;;;;;;3.00;2.53;;;21.00;99.90;;;;;;5003514;28;20435;-83
2021/08/22 12:57:17;;;;;;;3.37;2.63;;;21.10;99.90;;;;;;5016640;28;20826;-83
2021/08/22 12:59:43;;;;;;;3.23;2.83;;;21.20;99.90;;;;;;5000767;28;20189;-82